Time;durP1;ratioP1;P1;durP2;ratioP2;P2;SDS_P1;SDS_P2;PMS_P1;PMS_P2;Temp;Humidity;BMP_temperature;BMP_pressure;BME280_temperature;BME280_humidity;BME280_pressure;Samples;Min_cycle;Max_cycle;Signal;HPM_P1;HPM_P2
2022/01/13 00:01:30;;;;;;;;;;;-1.30;99.90;;;;;;5055410;28;19909;-41
2022/01/13 00:03:56;;;;;;;;;;;-1.30;99.90;;;;;;5055597;28;20339;-42
2022/01/13 00:06:21;;;;;;;;;;;-1.40;99.90;;;;;;5055196;28;19971;-42
2022/01/13 00:08:47;;;;;;;;;;;-1.40;99.90;;;;;;5055312;28;19919;-40
2022/01/13 00:11:12;;;;;;;;;;;-1.40;99.90;;;;;;5055321;28;19959;-42
2022/01/13 00:14:07;;;;;;;;;;;-1.40;99.90;;;;;;5055185;28;20355;-41
2022/01/13 00:21:58;;;;;;;;;;;-1.30;99.90;;;;;;5054641;28;19909;-40
2022/01/13 00:24:23;;;;;;;;;;;-1.10;99.90;;;;;;5055077;28;19928;-40
2022/01/13 00:26:49;;;;;;;;;;;-1.00;99.90;;;;;;5054943;28;19913;-41
2022/01/13 00:29:20;;;;;;;;;;;-1.00;99.90;;;;;;5054879;28;19920;-41
2022/01/13 00:31:46;;;;;;;;;;;-0.80;99.90;;;;;;5054868;28;19916;-41
2022/01/13 00:34:11;;;;;;;;;;;-0.80;99.90;;;;;;5054820;28;19909;-41
2022/01/13 00:36:38;;;;;;;;;;;-0.60;99.90;;;;;;5055084;28;19908;-41
2022/01/13 00:39:05;;;;;;;;;;;-0.70;99.90;;;;;;5054512;28;20008;-41
2022/01/13 00:41:30;;;;;;;;;;;-0.60;99.90;;;;;;5054729;28;19913;-42
2022/01/13 00:43:57;;;;;;;;;;;-0.60;99.90;;;;;;5054346;28;19916;-41
2022/01/13 00:46:25;;;;;;;;;;;-0.50;99.90;;;;;;5054564;28;19913;-41
2022/01/13 00:48:52;;;;;;;;;;;-0.40;99.90;;;;;;5054632;28;20271;-41
2022/01/13 00:51:18;;;;;;;;;;;-0.40;99.90;;;;;;5054469;28;20371;-41
2022/01/13 00:53:43;;;;;;;;;;;-0.30;99.90;;;;;;5054198;28;19915;-41
2022/01/13 00:56:09;;;;;;;;;;;-0.20;99.90;;;;;;5054214;28;19995;-41
2022/01/13 00:58:35;;;;;;;;;;;-0.20;99.90;;;;;;5054460;28;20337;-40
2022/01/13 01:01:02;;;;;;;;;;;-0.30;99.90;;;;;;5054408;28;19908;-41
2022/01/13 01:03:27;;;;;;;;;;;-0.20;99.90;;;;;;5054079;28;19909;-41
2022/01/13 01:05:53;;;;;;;;;;;-0.20;99.90;;;;;;5053951;28;19924;-41
2022/01/13 01:08:19;;;;;;;;;;;-0.20;99.90;;;;;;5054306;28;20279;-41
2022/01/13 01:10:47;;;;;;;;;;;-0.20;99.90;;;;;;5054263;28;19959;-41
2022/01/13 01:13:16;;;;;;;;;;;-0.20;99.90;;;;;;5054142;28;20055;-41
2022/01/13 01:15:46;;;;;;;;;;;-0.20;99.90;;;;;;5053832;28;19909;-41
2022/01/13 01:21:05;;;;;;;;;;;-0.20;99.90;;;;;;5054168;28;20271;-42
2022/01/13 01:23:34;;;;;;;;;;;-0.30;99.90;;;;;;5054139;28;19921;-41
2022/01/13 01:26:26;;;;;;;;;;;-0.20;99.90;;;;;;5053947;28;19913;-41
2022/01/13 01:28:50;;;;;;;;;;;-0.30;99.90;;;;;;5053368;28;20283;-41
2022/01/13 01:31:18;;;;;;;;;;;-0.20;99.90;;;;;;5053641;28;20390;-41
2022/01/13 01:33:55;;;;;;;;;;;-0.30;99.90;;;;;;5053453;28;19913;-41
2022/01/13 01:36:21;;;;;;;;;;;-0.30;99.90;;;;;;5054018;28;19998;-42
2022/01/13 01:38:50;;;;;;;;;;;-0.30;99.90;;;;;;5053570;28;20347;-41
2022/01/13 01:41:18;;;;;;;;;;;-0.30;99.90;;;;;;5053879;28;19909;-41
2022/01/13 01:43:44;;;;;;;;;;;-0.30;99.90;;;;;;5054219;28;19913;-41
2022/01/13 01:46:09;;;;;;;;;;;-0.30;99.90;;;;;;5053743;28;19982;-41
2022/01/13 01:48:36;;;;;;;;;;;-0.40;99.90;;;;;;5053820;28;19913;-41
2022/01/13 01:51:04;;;;;;;;;;;-0.40;99.90;;;;;;5053856;28;19913;-42
2022/01/13 01:53:30;;;;;;;;;;;-0.50;99.90;;;;;;5053427;28;19909;-41
2022/01/13 01:55:56;;;;;;;;;;;-0.50;99.90;;;;;;5054108;28;19916;-41
2022/01/13 01:58:22;;;;;;;;;;;-0.50;99.90;;;;;;5053674;28;19955;-41
2022/01/13 02:00:48;;;;;;;;;;;-0.50;99.90;;;;;;5054104;28;19909;-41
2022/01/13 02:03:15;;;;;;;;;;;-0.40;99.90;;;;;;5053758;28;19958;-41
2022/01/13 02:05:41;;;;;;;;;;;-0.50;99.90;;;;;;5053655;28;20011;-41
2022/01/13 02:08:06;;;;;;;;;;;-0.50;99.90;;;;;;5054027;28;20051;-41
2022/01/13 02:10:32;;;;;;;;;;;-0.50;99.90;;;;;;5053449;28;19916;-41
2022/01/13 02:13:04;;;;;;;;;;;-0.60;99.90;;;;;;5053648;28;19909;-41
2022/01/13 02:15:48;;;;;;;;;;;-0.60;99.90;;;;;;5053797;28;19995;-40
2022/01/13 02:18:13;;;;;;;;;;;-0.60;99.90;;;;;;5053675;28;19909;-40
2022/01/13 02:20:40;;;;;;;;;;;-0.60;99.90;;;;;;5053572;28;19909;-41
2022/01/13 02:23:05;;;;;;;;;;;-0.60;99.90;;;;;;5053192;28;19963;-41
2022/01/13 02:25:31;;;;;;;;;;;-0.70;99.90;;;;;;5053438;28;20359;-40
2022/01/13 02:27:56;;;;;;;;;;;-0.70;99.90;;;;;;5053512;28;19913;-40
2022/01/13 02:30:22;;;;;;;;;;;-0.60;99.90;;;;;;5053056;28;19916;-40
2022/01/13 02:32:47;;;;;;;;;;;-0.60;99.90;;;;;;5053090;28;19939;-40
2022/01/13 02:35:13;;;;;;;;;;;-0.60;99.90;;;;;;5053366;28;19912;-40
2022/01/13 02:37:38;;;;;;;;;;;-0.60;99.90;;;;;;5053145;28;20350;-41
2022/01/13 02:40:04;;;;;;;;;;;-0.60;99.90;;;;;;5053112;28;19962;-41
2022/01/13 02:42:30;;;;;;;;;;;-0.60;99.90;;;;;;5053359;28;20260;-41
2022/01/13 02:45:03;;;;;;;;;;;-0.60;99.90;;;;;;5055873;28;19909;-41
2022/01/13 02:47:58;;;;;;;;;;;-0.60;99.90;;;;;;5056927;28;19913;-41
2022/01/13 02:50:21;;;;;;;;;;;-0.60;99.90;;;;;;5056346;28;19952;-40
2022/01/13 02:52:46;;;;;;;;;;;-0.70;99.90;;;;;;5056467;28;20274;-41
2022/01/13 02:55:12;;;;;;;;;;;-0.80;99.90;;;;;;5056488;28;20003;-41
2022/01/13 02:57:39;;;;;;;;;;;-0.70;99.90;;;;;;5056385;28;19909;-41
2022/01/13 03:00:05;;;;;;;;;;;-0.70;99.90;;;;;;5056645;28;19913;-42
2022/01/13 03:02:31;;;;;;;;;;;-0.70;99.90;;;;;;5056256;28;19940;-41
2022/01/13 03:04:57;;;;;;;;;;;-0.70;99.90;;;;;;5056245;28;20002;-41
2022/01/13 03:07:23;;;;;;;;;;;-0.80;99.90;;;;;;5056320;28;19913;-41
2022/01/13 03:09:48;;;;;;;;;;;-0.70;99.90;;;;;;5056553;28;19909;-41
2022/01/13 03:12:14;;;;;;;;;;;-0.70;99.90;;;;;;5056352;28;19913;-41
2022/01/13 03:14:39;;;;;;;;;;;-0.70;99.90;;;;;;5056160;28;19909;-41
2022/01/13 03:17:05;;;;;;;;;;;-0.70;99.90;;;;;;5056067;28;19913;-41
2022/01/13 03:19:31;;;;;;;;;;;-0.70;99.90;;;;;;5056651;28;19959;-41
2022/01/13 03:21:57;;;;;;;;;;;-0.70;99.90;;;;;;5056138;28;20266;-41
2022/01/13 03:24:22;;;;;;;;;;;-0.70;99.90;;;;;;5056283;28;19917;-40
2022/01/13 03:26:49;;;;;;;;;;;-0.60;99.90;;;;;;5056141;28;19912;-40
2022/01/13 03:29:16;;;;;;;;;;;-0.90;99.90;;;;;;5055880;28;20007;-40
2022/01/13 03:31:45;;;;;;;;;;;-1.00;99.90;;;;;;5055775;28;20381;-41
2022/01/13 03:34:11;;;;;;;;;;;-1.20;99.90;;;;;;5056085;28;19908;-40
2022/01/13 03:36:36;;;;;;;;;;;-1.30;99.90;;;;;;5055619;28;19916;-41
2022/01/13 03:39:05;;;;;;;;;;;-1.30;99.90;;;;;;5055989;28;19908;-40
2022/01/13 03:41:30;;;;;;;;;;;-1.10;99.90;;;;;;5055929;28;20350;-41
2022/01/13 03:43:57;;;;;;;;;;;-1.00;99.90;;;;;;5055822;28;20000;-41
2022/01/13 03:46:23;;;;;;;;;;;-0.90;99.90;;;;;;5055794;28;19960;-42
2022/01/13 03:48:49;;;;;;;;;;;-0.80;99.90;;;;;;5055788;28;19919;-41
2022/01/13 03:51:14;;;;;;;;;;;-0.80;99.90;;;;;;5055373;28;20003;-42
2022/01/13 03:53:59;;;;;;;;;;;-0.70;99.90;;;;;;5055617;28;19947;-41
2022/01/13 03:56:27;;;;;;;;;;;-0.90;99.90;;;;;;5054610;28;20363;-40
2022/01/13 03:59:15;;;;;;;;;;;-0.90;99.90;;;;;;5055287;28;19915;-41
2022/01/13 04:01:44;;;;;;;;;;;-0.90;99.90;;;;;;5055535;28;19932;-42
2022/01/13 04:04:09;;;;;;;;;;;-1.00;99.90;;;;;;5055477;28;19916;-42
2022/01/13 04:06:42;;;;;;;;;;;-0.90;99.90;;;;;;5055287;28;20287;-42
2022/01/13 04:09:19;;;;;;;;;;;-0.80;99.90;;;;;;5055368;28;19913;-41
2022/01/13 04:11:45;;;;;;;;;;;-0.80;99.90;;;;;;5055593;28;19937;-41
2022/01/13 04:14:10;;;;;;;;;;;-0.70;99.90;;;;;;5055434;28;20267;-41
2022/01/13 04:16:37;;;;;;;;;;;-0.60;99.90;;;;;;5055306;28;20019;-42
2022/01/13 04:19:05;;;;;;;;;;;-0.60;99.90;;;;;;5055135;28;19991;-41
2022/01/13 04:21:31;;;;;;;;;;;-0.60;99.90;;;;;;5055093;28;19909;-42
2022/01/13 04:23:57;;;;;;;;;;;-0.50;99.90;;;;;;5055159;28;20015;-41
2022/01/13 04:26:34;;;;;;;;;;;-0.50;99.90;;;;;;5054850;28;20478;-41
2022/01/13 04:29:18;;;;;;;;;;;-0.50;99.90;;;;;;5054845;28;19928;-41
2022/01/13 04:31:45;;;;;;;;;;;-0.50;99.90;;;;;;5054607;28;19913;-42
2022/01/13 04:34:11;;;;;;;;;;;-0.40;99.90;;;;;;5054736;28;19916;-40
2022/01/13 04:36:37;;;;;;;;;;;-0.40;99.90;;;;;;5054661;28;19909;-41
2022/01/13 04:39:03;;;;;;;;;;;-0.50;99.90;;;;;;5054428;28;20004;-41
2022/01/13 04:41:34;;;;;;;;;;;-0.50;99.90;;;;;;5054765;28;19971;-41
2022/01/13 04:44:00;;;;;;;;;;;-0.60;99.90;;;;;;5054464;28;20295;-41
2022/01/13 04:46:26;;;;;;;;;;;-0.60;99.90;;;;;;5054689;28;19967;-41
2022/01/13 04:48:51;;;;;;;;;;;-0.60;99.90;;;;;;5054440;28;19959;-41
2022/01/13 04:51:17;;;;;;;;;;;-0.60;99.90;;;;;;5054209;28;19909;-41
2022/01/13 04:53:42;;;;;;;;;;;-0.60;99.90;;;;;;5054599;28;19927;-41
2022/01/13 04:56:15;;;;;;;;;;;-0.60;99.90;;;;;;5054298;28;19915;-42
2022/01/13 04:58:41;;;;;;;;;;;-0.70;99.90;;;;;;5054472;28;19909;-42
2022/01/13 05:01:06;;;;;;;;;;;-0.70;99.90;;;;;;5054059;28;19954;-41
2022/01/13 05:03:32;;;;;;;;;;;-0.80;99.90;;;;;;5054333;28;19909;-41
2022/01/13 05:05:58;;;;;;;;;;;-0.80;99.90;;;;;;5054200;28;19913;-41
2022/01/13 05:08:23;;;;;;;;;;;-0.90;99.90;;;;;;5054032;28;19917;-41
2022/01/13 05:10:49;;;;;;;;;;;-0.80;99.90;;;;;;5054012;28;20007;-41
2022/01/13 05:13:14;;;;;;;;;;;-0.80;99.90;;;;;;5054448;28;19909;-41
2022/01/13 05:15:42;;;;;;;;;;;-0.70;99.90;;;;;;5054116;28;20370;-42
2022/01/13 05:18:18;;;;;;;;;;;-0.80;99.90;;;;;;5054195;28;19936;-41
2022/01/13 05:20:58;;;;;;;;;;;-0.80;99.90;;;;;;5054025;28;19913;-40
2022/01/13 05:23:24;;;;;;;;;;;-0.80;99.90;;;;;;5054052;28;19967;-41
2022/01/13 05:25:49;;;;;;;;;;;-0.80;99.90;;;;;;5053783;28;19944;-40
2022/01/13 05:28:15;;;;;;;;;;;-0.80;99.90;;;;;;5053638;28;19917;-40
2022/01/13 05:30:41;;;;;;;;;;;-0.80;99.90;;;;;;5053753;28;19919;-40
2022/01/13 05:33:07;;;;;;;;;;;-0.90;99.90;;;;;;5053798;28;20012;-41
2022/01/13 05:35:33;;;;;;;;;;;-0.80;99.90;;;;;;5053716;28;19913;-41
2022/01/13 05:37:58;;;;;;;;;;;-0.80;99.90;;;;;;5053428;28;19909;-42
2022/01/13 05:40:24;;;;;;;;;;;-0.90;99.90;;;;;;5053647;28;19931;-41
2022/01/13 05:42:50;;;;;;;;;;;-0.80;99.90;;;;;;5054050;28;19908;-41
2022/01/13 05:45:18;;;;;;;;;;;-0.90;99.90;;;;;;5052794;28;20091;-41
2022/01/13 05:47:44;;;;;;;;;;;-0.90;99.90;;;;;;5053182;28;19923;-41
2022/01/13 05:50:10;;;;;;;;;;;-1.00;99.90;;;;;;5053485;28;19954;-43
2022/01/13 05:52:36;;;;;;;;;;;-1.10;99.90;;;;;;5052760;28;19909;-41
2022/01/13 05:55:03;;;;;;;;;;;-1.00;99.90;;;;;;5053397;28;19915;-41
2022/01/13 05:57:29;;;;;;;;;;;-1.10;99.90;;;;;;5053246;28;19909;-41
2022/01/13 05:59:54;;;;;;;;;;;-1.10;99.90;;;;;;5053297;28;20312;-41
2022/01/13 06:02:20;;;;;;;;;;;-1.10;99.90;;;;;;5053360;28;19940;-41
2022/01/13 06:04:45;;;;;;;;;;;-1.10;99.90;;;;;;5053008;28;19908;-41
2022/01/13 06:07:10;;;;;;;;;;;-1.00;99.90;;;;;;5052891;28;19912;-41
2022/01/13 06:09:36;;;;;;;;;;;-1.10;99.90;;;;;;5053070;28;19913;-41
2022/01/13 06:12:03;;;;;;;;;;;-1.10;99.90;;;;;;5059313;28;19913;-41
2022/01/13 06:14:29;;;;;;;;;;;-1.10;99.90;;;;;;5053242;28;19920;-41
2022/01/13 06:16:54;;;;;;;;;;;-1.20;99.90;;;;;;5054570;28;19909;-41
2022/01/13 06:19:20;;;;;;;;;;;-1.20;99.90;;;;;;5066231;28;20358;-43
2022/01/13 06:21:46;;;;;;;;;;;-1.20;99.90;;;;;;5056734;28;19912;-42
2022/01/13 06:24:11;;;;;;;;;;;-1.50;99.90;;;;;;5069327;28;19928;-41
2022/01/13 06:26:37;;;;;;;;;;;-1.30;99.90;;;;;;5066370;28;19917;-41
2022/01/13 06:29:02;;;;;;;;;;;-1.30;99.90;;;;;;5062908;28;20400;-42
2022/01/13 06:31:28;;;;;;;;;;;-1.50;99.90;;;;;;5056599;28;20392;-41
2022/01/13 06:33:53;;;;;;;;;;;-1.40;99.90;;;;;;5060000;28;20382;-41
2022/01/13 06:36:20;;;;;;;;;;;-1.40;99.90;;;;;;5057422;28;19941;-41
2022/01/13 06:38:48;;;;;;;;;;;-1.30;99.90;;;;;;5070092;28;20275;-42
2022/01/13 06:41:14;;;;;;;;;;;-1.30;99.90;;;;;;5072323;28;20273;-41
2022/01/13 06:43:40;;;;;;;;;;;-1.30;99.90;;;;;;5069733;28;20295;-41
2022/01/13 06:46:05;;;;;;;;;;;-1.20;99.90;;;;;;5075694;28;19912;-42
2022/01/13 06:48:31;;;;;;;;;;;-1.20;99.90;;;;;;5071664;28;19913;-41
2022/01/13 06:50:56;;;;;;;;;;;-1.20;99.90;;;;;;5069591;28;19912;-41
2022/01/13 06:53:22;;;;;;;;;;;-1.20;99.90;;;;;;5075147;28;19912;-42
2022/01/13 06:55:47;;;;;;;;;;;-1.20;99.90;;;;;;5075929;28;19909;-42
2022/01/13 06:58:13;;;;;;;;;;;-1.20;99.90;;;;;;5075174;28;20354;-41
2022/01/13 07:00:39;;;;;;;;;;;-1.10;99.90;;;;;;5076052;28;20247;-42
2022/01/13 07:03:04;;;;;;;;;;;-1.20;99.90;;;;;;5075583;28;19954;-41
2022/01/13 07:05:30;;;;;;;;;;;-1.20;99.90;;;;;;5075703;28;19913;-41
2022/01/13 07:07:56;;;;;;;;;;;-1.20;99.90;;;;;;5075375;28;19913;-41
2022/01/13 07:10:22;;;;;;;;;;;-1.30;99.90;;;;;;5075313;28;19931;-41
2022/01/13 07:12:47;;;;;;;;;;;-1.30;99.90;;;;;;5076043;28;19909;-40
2022/01/13 07:15:13;;;;;;;;;;;-1.30;99.90;;;;;;5075733;28;19916;-41
2022/01/13 07:17:38;;;;;;;;;;;-1.40;99.90;;;;;;5075876;28;20304;-41
2022/01/13 07:20:04;;;;;;;;;;;-1.40;99.90;;;;;;5076142;28;19912;-41
2022/01/13 07:22:30;;;;;;;;;;;-1.40;99.90;;;;;;5075320;28;19921;-41
2022/01/13 07:24:56;;;;;;;;;;;-1.30;99.90;;;;;;5075776;28;19999;-41
2022/01/13 07:27:21;;;;;;;;;;;-1.30;99.90;;;;;;5075446;28;19913;-41
2022/01/13 07:29:48;;;;;;;;;;;-1.30;99.90;;;;;;5075633;28;19999;-41
2022/01/13 07:32:15;;;;;;;;;;;-1.30;99.90;;;;;;5075486;28;19957;-41
2022/01/13 07:34:41;;;;;;;;;;;-1.30;99.90;;;;;;5075307;28;19940;-42
2022/01/13 07:37:07;;;;;;;;;;;-1.30;99.90;;;;;;5074963;28;20362;-41
2022/01/13 07:39:32;;;;;;;;;;;-1.30;99.90;;;;;;5075293;28;19923;-41
2022/01/13 07:41:58;;;;;;;;;;;-1.30;99.90;;;;;;5074957;28;20283;-42
2022/01/13 07:44:24;;;;;;;;;;;-1.40;99.90;;;;;;5074813;28;19997;-42
2022/01/13 07:46:49;;;;;;;;;;;-1.40;99.90;;;;;;5074737;28;19963;-41
2022/01/13 07:49:15;;;;;;;;;;;-1.30;99.90;;;;;;5074925;28;20026;-42
2022/01/13 07:51:40;;;;;;;;;;;-1.20;99.90;;;;;;5074765;28;19909;-43
2022/01/13 07:54:06;;;;;;;;;;;-1.20;99.90;;;;;;5075072;28;20012;-42
2022/01/13 07:56:31;;;;;;;;;;;-1.10;99.90;;;;;;5074560;28;19908;-41
2022/01/13 07:58:57;;;;;;;;;;;-1.30;99.90;;;;;;5075124;28;19955;-41
2022/01/13 08:01:22;;;;;;;;;;;-1.40;99.90;;;;;;5074859;28;19915;-40
2022/01/13 08:03:48;;;;;;;;;;;-1.30;99.90;;;;;;5074796;28;19991;-41
2022/01/13 08:06:14;;;;;;;;;;;-1.20;99.90;;;;;;5056763;28;19916;-41
2022/01/13 08:08:39;;;;;;;;;;;-1.40;99.90;;;;;;5074803;28;20027;-40
2022/01/13 08:11:06;;;;;;;;;;;-1.60;99.90;;;;;;5074688;28;20010;-41
2022/01/13 08:13:32;;;;;;;;;;;-1.50;99.90;;;;;;5074771;28;19909;-41
2022/01/13 08:15:59;;;;;;;;;;;-1.40;99.90;;;;;;5074641;28;20412;-42
2022/01/13 08:21:08;;;;;;;;;;;-1.50;99.90;;;;;;5074587;28;19920;-41
2022/01/13 08:23:34;;;;;;;;;;;-1.50;99.90;;;;;;5074771;28;19954;-42
2022/01/13 08:25:59;;;;;;;;;;;-1.30;99.90;;;;;;5074754;28;20408;-41
2022/01/13 08:28:28;;;;;;;;;;;-1.50;99.90;;;;;;5074336;28;19913;-41
2022/01/13 08:30:54;;;;;;;;;;;-1.20;99.90;;;;;;5074432;28;19915;-41
2022/01/13 08:33:22;;;;;;;;;;;-1.40;99.90;;;;;;5074005;28;20278;-41
2022/01/13 08:35:48;;;;;;;;;;;-1.40;99.90;;;;;;5074268;28;19976;-39
2022/01/13 08:38:18;;;;;;;;;;;-1.30;99.90;;;;;;5074546;28;19913;-42
2022/01/13 08:40:48;;;;;;;;;;;-1.30;99.90;;;;;;5074530;28;19966;-40
2022/01/13 08:43:14;;;;;;;;;;;-1.00;99.90;;;;;;5073698;28;19912;-41
2022/01/13 08:45:40;;;;;;;;;;;-0.70;99.90;;;;;;5073935;28;20003;-40
2022/01/13 08:48:06;;;;;;;;;;;-0.50;99.90;;;;;;5073824;28;19959;-41
2022/01/13 08:50:31;;;;;;;;;;;-0.50;99.90;;;;;;5073982;28;19915;-41
2022/01/13 08:52:57;;;;;;;;;;;-0.20;99.90;;;;;;5073630;28;19916;-41
2022/01/13 08:55:22;;;;;;;;;;;-0.10;99.90;;;;;;5073980;28;20354;-41
2022/01/13 08:57:48;;;;;;;;;;;0.10;99.90;;;;;;5073944;28;19962;-41
2022/01/13 09:00:13;;;;;;;;;;;0.10;99.90;;;;;;5073548;28;19920;-41
2022/01/13 09:02:40;;;;;;;;;;;0.20;99.90;;;;;;5073629;28;19915;-41
2022/01/13 09:05:06;;;;;;;;;;;0.40;99.90;;;;;;5073957;28;19996;-42
2022/01/13 09:07:31;;;;;;;;;;;0.50;99.90;;;;;;5073487;28;20003;-41
2022/01/13 09:09:57;;;;;;;;;;;0.60;99.90;;;;;;5073636;28;19909;-42
2022/01/13 09:12:23;;;;;;;;;;;0.60;99.90;;;;;;5073791;28;19908;-40
2022/01/13 09:14:50;;;;;;;;;;;0.70;99.90;;;;;;5073850;28;19908;-41
2022/01/13 09:17:22;;;;;;;;;;;0.70;99.90;;;;;;5073785;28;20274;-45
2022/01/13 09:19:48;;;;;;;;;;;0.80;99.90;;;;;;5073857;28;19908;-41
2022/01/13 09:22:14;;;;;;;;;;;0.90;99.90;;;;;;5073530;28;19938;-43
2022/01/13 09:24:39;;;;;;;;;;;1.00;99.90;;;;;;5073856;28;19920;-43
2022/01/13 09:27:06;;;;;;;;;;;0.90;99.90;;;;;;5073426;28;19912;-40
2022/01/13 09:29:32;;;;;;;;;;;0.90;99.90;;;;;;5073328;28;19916;-42
2022/01/13 09:31:57;;;;;;;;;;;1.00;99.90;;;;;;5073386;28;20355;-40
2022/01/13 09:34:23;;;;;;;;;;;1.10;99.90;;;;;;5073581;28;19968;-42
2022/01/13 09:36:48;;;;;;;;;;;1.20;99.90;;;;;;5073616;28;19999;-41
2022/01/13 09:39:14;;;;;;;;;;;1.20;99.90;;;;;;5073029;28;19920;-42
2022/01/13 09:41:41;;;;;;;;;;;1.20;99.90;;;;;;5073159;28;19916;-41
2022/01/13 09:44:07;;;;;;;;;;;1.00;99.90;;;;;;5073492;28;19908;-41
2022/01/13 09:46:33;;;;;;;;;;;1.20;99.90;;;;;;5072973;28;19923;-41
2022/01/13 09:49:04;;;;;;;;;;;1.40;99.90;;;;;;5072966;28;19919;-41
2022/01/13 09:51:31;;;;;;;;;;;1.40;99.90;;;;;;5073275;28;19913;-41
2022/01/13 09:53:56;;;;;;;;;;;1.40;99.90;;;;;;5074822;28;19908;-43
2022/01/13 09:56:22;;;;;;;;;;;1.40;99.90;;;;;;5077383;28;20300;-41
2022/01/13 09:58:47;;;;;;;;;;;1.50;99.90;;;;;;5077340;28;19913;-42
2022/01/13 10:01:13;;;;;;;;;;;1.60;99.90;;;;;;5077468;28;19908;-42
2022/01/13 10:03:39;;;;;;;;;;;1.80;99.90;;;;;;5077047;28;19908;-42
2022/01/13 10:06:18;;;;;;;;;;;2.00;99.90;;;;;;5077188;28;19958;-42
2022/01/13 10:08:47;;;;;;;;;;;2.10;99.90;;;;;;5076892;28;19917;-41
2022/01/13 10:11:25;;;;;;;;;;;2.10;99.90;;;;;;5076918;28;19908;-40
2022/01/13 10:16:23;;;;;;;;;;;2.00;99.90;;;;;;5076937;28;19970;-42
2022/01/13 10:17:00;;;;;;;;;;;2.10;99.90;;;;;;5076246;28;19962;-42
2022/01/13 10:19:26;;;;;;;;;;;2.00;99.90;;;;;;5077013;28;19908;-41
2022/01/13 10:22:11;;;;;;;;;;;2.10;99.90;;;;;;5076996;28;19931;-40
2022/01/13 10:24:37;;;;;;;;;;;2.10;99.90;;;;;;5036507;28;19921;-41
2022/01/13 10:27:03;;;;;;;;;;;2.30;99.90;;;;;;5036840;28;19913;-42
2022/01/13 10:29:38;;;;;;;;;;;2.40;99.90;;;;;;5036362;28;19913;-42
2022/01/13 10:32:04;;;;;;;;;;;2.40;99.90;;;;;;5036258;28;19920;-42
2022/01/13 10:34:32;;;;;;;;;;;2.50;99.90;;;;;;5036803;28;19995;-42
2022/01/13 10:36:58;;;;;;;;;;;2.60;99.90;;;;;;5036622;28;19965;-42
2022/01/13 10:39:42;;;;;;;;;;;2.80;99.90;;;;;;5035364;28;20364;-41
2022/01/13 10:43:09;;;;;;;;;;;2.80;99.90;;;;;;5036213;28;19909;-42
2022/01/13 10:45:14;;;;;;;;;;;3.00;99.90;;;;;;5030982;28;19909;-41
2022/01/13 10:47:40;;;;;;;;;;;3.10;99.90;;;;;;5036345;28;19924;-43
2022/01/13 10:50:07;;;;;;;;;;;3.10;99.90;;;;;;5036238;28;19928;-41
2022/01/13 10:52:33;;;;;;;;;;;3.20;99.90;;;;;;5036226;28;19913;-41
2022/01/13 10:55:02;;;;;;;;;;;3.20;99.90;;;;;;5035777;28;19916;-42
2022/01/13 10:57:28;;;;;;;;;;;3.20;99.90;;;;;;5036052;28;19909;-42
2022/01/13 10:59:54;;;;;;;;;;;3.30;99.90;;;;;;5035464;28;19920;-41
2022/01/13 11:02:20;;;;;;;;;;;3.20;99.90;;;;;;5036025;28;19909;-41
2022/01/13 11:04:46;;;;;;;;;;;3.30;99.90;;;;;;5035494;28;19945;-41
2022/01/13 11:07:16;;;;;;;;;;;3.30;99.90;;;;;;5035693;28;19919;-42
2022/01/13 11:09:43;;;;;;;;;;;3.50;99.90;;;;;;5036056;28;19939;-42
2022/01/13 11:12:10;;;;;;;;;;;3.60;99.90;;;;;;5036071;28;19916;-41
2022/01/13 11:14:42;;;;;;;;;;;3.70;99.90;;;;;;5035246;28;20338;-41
2022/01/13 11:17:07;;;;;;;;;;;3.60;99.90;;;;;;5035566;28;19957;-41
2022/01/13 11:19:33;;;;;;;;;;;3.70;99.90;;;;;;5035352;28;19909;-42
2022/01/13 11:21:59;;;;;;;;;;;3.70;99.90;;;;;;5035818;28;19909;-41
2022/01/13 11:24:24;;;;;;;;;;;3.90;99.90;;;;;;5074452;28;19912;-41
2022/01/13 11:26:50;;;;;;;;;;;4.00;99.90;;;;;;5073828;28;19912;-42
2022/01/13 11:29:17;;;;;;;;;;;4.10;99.90;;;;;;5074353;28;19926;-44
2022/01/13 11:31:43;;;;;;;;;;;4.10;99.90;;;;;;5074459;28;19908;-42
2022/01/13 11:34:09;;;;;;;;;;;4.10;99.90;;;;;;5074298;28;19915;-43
2022/01/13 11:36:35;;;;;;;;;;;4.30;99.90;;;;;;5074142;28;20042;-42
2022/01/13 11:39:05;;;;;;;;;;;4.50;99.90;;;;;;5074168;28;19973;-42
2022/01/13 11:41:31;;;;;;;;;;;4.60;99.90;;;;;;5074261;28;19962;-41
2022/01/13 11:44:20;;;;;;;;;;;4.60;99.90;;;;;;5074094;28;19908;-41
2022/01/13 11:46:47;;;;;;;;;;;4.50;99.90;;;;;;5073593;28;19955;-41
2022/01/13 11:49:35;;;;;;;;;;;4.40;99.90;;;;;;5073770;28;19919;-41
2022/01/13 11:52:13;;;;;;;;;;;4.70;99.90;;;;;;5073436;28;19908;-42
2022/01/13 11:54:39;;;;;;;;;;;4.40;99.90;;;;;;5073741;28;19999;-43
2022/01/13 11:57:13;;;;;;;;;;;4.20;99.90;;;;;;5073638;28;20312;-41
2022/01/13 11:59:39;;;;;;;;;;;4.20;99.90;;;;;;5073651;28;19908;-42
2022/01/13 12:02:24;;;;;;;;;;;4.40;99.90;;;;;;5073654;28;19999;-42
2022/01/13 12:04:59;;;;;;;;;;;3.80;99.90;;;;;;5074047;28;19954;-42
2022/01/13 12:07:38;;;;;;;;;;;3.90;99.90;;;;;;5073337;28;19912;-42
2022/01/13 12:10:05;;;;;;;;;;;4.20;99.90;;;;;;5073709;28;19954;-42
2022/01/13 12:12:31;;;;;;;;;;;3.90;99.90;;;;;;5073813;28;19908;-42
2022/01/13 12:15:12;;;;;;;;;;;3.60;99.90;;;;;;5073871;28;19909;-41
2022/01/13 12:18:05;;;;;;;;;;;3.40;99.90;;;;;;5072776;28;20312;-41
2022/01/13 12:21:09;;;;;;;;;;;3.80;99.90;;;;;;5070242;28;19909;-42
2022/01/13 12:23:37;;;;;;;;;;;3.80;99.90;;;;;;5007534;28;1840163;-41
2022/01/13 12:26:02;;;;;;;;;;;3.80;99.90;;;;;;5073962;28;20408;-41
2022/01/13 12:28:28;;;;;;;;;;;4.00;99.90;;;;;;5073631;28;19912;-42
2022/01/13 12:30:53;;;;;;;;;;;4.00;99.90;;;;;;5073978;28;19912;-41
2022/01/13 12:33:29;;;;;;;;;;;4.00;99.90;;;;;;5056202;28;19908;-41
2022/01/13 12:35:55;;;;;;;;;;;3.80;99.90;;;;;;5074167;28;19954;-42
2022/01/13 12:38:21;;;;;;;;;;;3.60;99.90;;;;;;5073891;28;19913;-41
2022/01/13 12:41:13;;;;;;;;;;;3.40;99.90;;;;;;5074175;28;20266;-42
2022/01/13 12:46:09;;;;;;;;;;;3.90;99.90;;;;;;5073761;28;19912;-41
2022/01/13 12:48:36;;;;;;;;;;;4.00;99.90;;;;;;5073503;28;20223;-42
2022/01/13 12:51:02;;;;;;;;;;;3.40;99.90;;;;;;5074420;28;19915;-41
2022/01/13 12:53:29;;;;;;;;;;;3.00;99.90;;;;;;5073274;28;19916;-42
2022/01/13 12:55:56;;;;;;;;;;;3.00;99.90;;;;;;5073571;28;19908;-41
2022/01/13 12:58:23;;;;;;;;;;;2.80;99.90;;;;;;5074055;28;19952;-41
2022/01/13 13:00:49;;;;;;;;;;;3.00;99.90;;;;;;5073733;28;19908;-41
2022/01/13 13:03:15;;;;;;;;;;;2.60;99.90;;;;;;5073666;28;19915;-41
2022/01/13 13:05:40;;;;;;;;;;;2.80;99.90;;;;;;5073725;28;19912;-42
2022/01/13 13:08:07;;;;;;;;;;;2.60;99.90;;;;;;5073308;28;19959;-42
2022/01/13 13:10:33;;;;;;;;;;;2.80;99.90;;;;;;5073320;28;20433;-41
2022/01/13 13:12:59;;;;;;;;;;;2.70;99.90;;;;;;5073869;28;19955;-42
2022/01/13 13:17:51;;;;;;;;;;;2.80;99.90;;;;;;5073361;28;19909;-41
2022/01/13 13:20:25;;;;;;;;;;;2.90;99.90;;;;;;5055473;28;19958;-43
2022/01/13 13:22:53;;;;;;;;;;;2.60;99.90;;;;;;5073555;28;19920;-42
2022/01/13 13:25:28;;;;;;;;;;;2.50;99.90;;;;;;5072573;28;20468;-42
2022/01/13 13:27:53;;;;;;;;;;;2.50;99.90;;;;;;5073220;28;20251;-40
2022/01/13 13:30:19;;;;;;;;;;;2.80;99.90;;;;;;5073537;28;19931;-42
2022/01/13 13:32:48;;;;;;;;;;;2.40;99.90;;;;;;5073185;28;19912;-42
2022/01/13 13:35:14;;;;;;;;;;;2.40;99.90;;;;;;5072784;28;19943;-41
2022/01/13 13:37:46;;;;;;;;;;;2.70;99.90;;;;;;5073577;28;20258;-42
2022/01/13 13:40:24;;;;;;;;;;;2.90;99.90;;;;;;5073632;28;20006;-43
2022/01/13 13:43:03;;;;;;;;;;;3.10;99.90;;;;;;5073334;28;19908;-42
2022/01/13 13:45:29;;;;;;;;;;;3.00;99.90;;;;;;5073280;28;20012;-42
2022/01/13 13:47:55;;;;;;;;;;;3.00;99.90;;;;;;5072872;28;19916;-42
2022/01/13 13:50:21;;;;;;;;;;;2.80;99.90;;;;;;5072954;28;19908;-42
2022/01/13 13:52:46;;;;;;;;;;;2.70;99.90;;;;;;5073037;28;19973;-42
2022/01/13 13:55:12;;;;;;;;;;;2.80;99.90;;;;;;5073109;28;19908;-41
2022/01/13 13:57:39;;;;;;;;;;;2.70;99.90;;;;;;5072805;28;19914;-41
2022/01/13 14:00:09;;;;;;;;;;;3.20;99.90;;;;;;5072826;28;19974;-41
2022/01/13 14:02:36;;;;;;;;;;;3.20;99.90;;;;;;5072299;28;19936;-42
2022/01/13 14:05:04;;;;;;;;;;;3.40;99.90;;;;;;5072474;28;19984;-41
2022/01/13 14:07:33;;;;;;;;;;;3.70;99.90;;;;;;5071380;28;19919;-42
2022/01/13 14:10:00;;;;;;;;;;;3.70;99.90;;;;;;5056274;28;19925;-41
2022/01/13 14:12:26;;;;;;;;;;;3.90;99.90;;;;;;5055234;28;20390;-42
2022/01/13 14:14:51;;;;;;;;;;;4.10;99.90;;;;;;5061408;28;19970;-44
2022/01/13 14:17:27;;;;;;;;;;;4.10;99.90;;;;;;5058541;28;19921;-42
2022/01/13 14:20:22;;;;;;;;;;;3.90;99.90;;;;;;5052539;28;19932;-43
2022/01/13 14:23:01;;;;;;;;;;;4.00;99.90;;;;;;5047221;28;19920;-41
2022/01/13 14:25:28;;;;;;;;;;;3.80;99.90;;;;;;5070761;28;19966;-42
2022/01/13 14:27:55;;;;;;;;;;;3.50;99.90;;;;;;5069905;28;19970;-41
2022/01/13 14:30:46;;;;;;;;;;;3.60;99.90;;;;;;5071236;28;20317;-42
2022/01/13 14:33:22;;;;;;;;;;;3.40;99.90;;;;;;5049288;28;19964;-42
2022/01/13 14:35:58;;;;;;;;;;;3.30;99.90;;;;;;5052116;28;19970;-43
2022/01/13 14:38:32;;;;;;;;;;;3.30;99.90;;;;;;5055222;28;19913;-42
2022/01/13 14:40:58;;;;;;;;;;;3.10;99.90;;;;;;5069756;28;19936;-45
2022/01/13 14:43:23;;;;;;;;;;;3.30;99.90;;;;;;5074116;28;20351;-44